This is the latest recevied weather packets stored in our database for station/object F4AMY-13. If no packets are shown the sender has not sent any weather packets the latest 10 day(s).
| Time | Temp. | Humidity | Pressure | Rain* | Wind** | Luminosity | Snow |
|---|---|---|---|---|---|---|---|
| 1776967589 | 17.78° C | 59% | 1018.5 hPa | 0 mm | 0 m/s | 0 W/m² | - |
| 1776967289 | 18.33° C | 58% | 1018.7 hPa | 0 mm | 0 m/s | 0 W/m² | - |
| 1776966989 | 18.89° C | 57% | 1018.6 hPa | 0 mm | 0.45 m/s, ° | 1 W/m² | - |
| 1776966689 | 19.44° C | 55% | 1018.8 hPa | 0 mm | 1.34 m/s, ° | 3 W/m² | - |
| 1776966389 | 20° C | 55% | 1018.7 hPa | 0 mm | 1.79 m/s, ° | 4 W/m² | - |
| 1776966089 | 20.56° C | 53% | 1018.6 hPa | 0 mm | 2.68 m/s, ° | 6 W/m² | - |
| 1776965789 | 21.11° C | 51% | 1018.7 hPa | 0 mm | 7.6 m/s, ° | 17 W/m² | - |
| 1776965489 | 21.67° C | 49% | 1018.7 hPa | 0 mm | 8.49 m/s, ° | 19 W/m² | - |
| 1776965189 | 22.78° C | 48% | 1018.6 hPa | 0 mm | 9.39 m/s, ° | 21 W/m² | - |
| 1776964889 | 22.78° C | 46% | 1018.6 hPa | 0 mm | 10.28 m/s, ° | 23 W/m² | - |
| 1776964589 | 23.33° C | 45% | 1018.7 hPa | 0 mm | 12.96 m/s, ° | 29 W/m² | - |
| 1776964289 | 23.33° C | 44% | 1018.6 hPa | 0 mm | 18.78 m/s, ° | 42 W/m² | - |
| 1776963989 | 23.33° C | 42% | 1018.5 hPa | 0 mm | 16.99 m/s, ° | 38 W/m² | - |
| 1776963688 | 23.33° C | 42% | 1019 hPa | 0 mm | 50.96 m/s, ° | 114 W/m² | - |
| 1776963388 | 23.33° C | 42% | 1018.9 hPa | 0 mm | 106.84 m/s, ° | 239 W/m² | - |
| 1776963088 | 23.89° C | 42% | 1018.7 hPa | 0 mm | 111.31 m/s, ° | 249 W/m² | - |
| 1776962788 | 23.89° C | 44% | 1018.7 hPa | 0 mm | 116.23 m/s, ° | 260 W/m² | - |
| 1776962488 | 24.44° C | 45% | 1018.9 hPa | 0 mm | 108.63 m/s, ° | 243 W/m² | - |
| 1776962188 | 24.44° C | 44% | 1018.7 hPa | 0 mm | 124.72 m/s, ° | 279 W/m² | - |
| 1776961888 | 25° C | 43% | 1018.8 hPa | 0 mm | 127.41 m/s, ° | 285 W/m² | - |
| 1776961588 | 25° C | 39% | 1018.7 hPa | 0 mm | 131.88 m/s, ° | 295 W/m² | - |
| 1776961288 | 25° C | 40% | 1018.8 hPa | 0 mm | 134.11 m/s, ° | 300 W/m² | - |
| 1776960988 | 25° C | 39% | 1018.9 hPa | 0 mm | 137.24 m/s, ° | 307 W/m² | - |
| 1776960688 | 25° C | 39% | 1018.9 hPa | 0 mm | 39.79 m/s, ° | 89 W/m² | - |
| 1776960388 | 25° C | 43% | 1018.8 hPa | 0 mm | 136.35 m/s, ° | 305 W/m² | - |
* Rain latest hour (hover to see other rain measurements)
** Current wind speed in m/s (hover to see current wind gust speed)